Time;durP1;ratioP1;P1;durP2;ratioP2;P2;SDS_P1;SDS_P2;PMS_P1;PMS_P2;Temp;Humidity;BMP_temperature;BMP_pressure;BME280_temperature;BME280_humidity;BME280_pressure;Samples;Min_cycle;Max_cycle;Signal;HPM_P1;HPM_P2
2022/04/04 00:00:47;;;;;;;9.55;6.80;;;;;;;;;;4950516;29;20043;-67
2022/04/04 00:03:16;;;;;;;7.70;6.55;;;;;;;;;;4952780;29;20051;-67
2022/04/04 00:05:47;;;;;;;6.72;6.03;;;;;;;;;;4945885;28;20118;-66
2022/04/04 00:08:18;;;;;;;7.18;6.43;;;;;;;;;;4945801;28;20102;-67
2022/04/04 00:10:48;;;;;;;7.80;6.45;;;;;;;;;;4941520;29;20043;-67
2022/04/04 00:13:19;;;;;;;10.55;6.88;;;;;;;;;;4953556;29;20053;-66
2022/04/04 00:15:51;;;;;;;9.93;7.57;;;;;;;;;;4948766;28;20071;-68
2022/04/04 00:18:20;;;;;;;11.50;7.90;;;;;;;;;;4944837;28;20066;-67
2022/04/04 00:20:50;;;;;;;9.50;8.27;;;;;;;;;;4932281;29;20134;-67
2022/04/04 00:23:21;;;;;;;13.20;8.10;;;;;;;;;;4952082;28;20102;-69
2022/04/04 00:25:53;;;;;;;9.80;6.95;;;;;;;;;;4949442;28;20078;-67
2022/04/04 00:28:21;;;;;;;11.00;7.32;;;;;;;;;;4947829;28;20147;-67
2022/04/04 00:30:50;;;;;;;9.85;8.85;;;;;;;;;;4950558;28;20063;-69
2022/04/04 00:33:21;;;;;;;10.02;8.75;;;;;;;;;;4946763;28;20071;-69
2022/04/04 00:35:52;;;;;;;10.02;7.68;;;;;;;;;;4940243;29;20043;-67
2022/04/04 00:38:23;;;;;;;9.38;8.38;;;;;;;;;;4945414;29;20056;-69
2022/04/04 00:40:52;;;;;;;13.05;8.88;;;;;;;;;;4948780;29;20051;-70
2022/04/04 00:43:22;;;;;;;11.02;9.93;;;;;;;;;;4939394;29;20059;-68
2022/04/04 00:45:53;;;;;;;10.38;8.90;;;;;;;;;;4957221;28;20065;-70
2022/04/04 00:48:22;;;;;;;10.68;9.60;;;;;;;;;;4957298;28;20121;-70
2022/04/04 00:50:50;;;;;;;11.15;9.63;;;;;;;;;;4956252;28;20054;-70
2022/04/04 00:53:18;;;;;;;11.15;9.32;;;;;;;;;;4938478;29;20507;-70
2022/04/04 00:55:47;;;;;;;10.48;9.48;;;;;;;;;;4952371;28;20051;-68
2022/04/04 00:58:17;;;;;;;11.50;10.05;;;;;;;;;;4956178;28;20073;-70
2022/04/04 01:00:48;;;;;;;10.65;9.65;;;;;;;;;;4955585;29;20098;-70
2022/04/04 01:03:16;;;;;;;10.73;9.73;;;;;;;;;;4956709;28;20057;-70
2022/04/04 01:05:46;;;;;;;11.38;10.27;;;;;;;;;;4957016;28;20070;-70
2022/04/04 01:08:16;;;;;;;12.10;10.90;;;;;;;;;;4955265;29;20055;-70
2022/04/04 01:10:44;;;;;;;13.02;10.43;;;;;;;;;;4939071;28;20422;-70
2022/04/04 01:13:13;;;;;;;12.10;10.90;;;;;;;;;;4954768;29;20054;-69
2022/04/04 01:15:42;;;;;;;12.40;10.23;;;;;;;;;;4950958;29;20054;-69
2022/04/04 01:18:11;;;;;;;11.45;10.18;;;;;;;;;;4938086;28;20058;-69
2022/04/04 01:20:38;;;;;;;10.90;9.80;;;;;;;;;;4937522;28;20063;-70
2022/04/04 01:23:07;;;;;;;11.13;10.02;;;;;;;;;;4937653;29;20059;-69
2022/04/04 01:25:36;;;;;;;10.57;9.48;;;;;;;;;;4936286;29;20414;-69
2022/04/04 01:28:05;;;;;;;12.38;9.65;;;;;;;;;;4954931;28;20083;-70
2022/04/04 01:30:34;;;;;;;11.05;9.90;;;;;;;;;;4956731;28;20055;-69
2022/04/04 01:33:03;;;;;;;10.27;9.23;;;;;;;;;;4955569;29;20076;-69
2022/04/04 01:35:32;;;;;;;12.15;11.00;;;;;;;;;;4956014;28;20047;-69
2022/04/04 01:38:01;;;;;;;11.70;10.10;;;;;;;;;;4956034;28;20087;-69
2022/04/04 01:40:29;;;;;;;11.27;9.73;;;;;;;;;;4956435;28;20149;-68
2022/04/04 01:42:58;;;;;;;11.70;10.70;;;;;;;;;;4953724;28;20503;-68
2022/04/04 01:48:12;;;;;;;10.52;9.43;;;;;;;;;;4935715;29;20106;-68
2022/04/04 01:50:42;;;;;;;12.60;10.65;;;;;;;;;;4937335;29;20056;-68
2022/04/04 01:53:26;;;;;;;11.35;10.23;;;;;;;;;;4937033;29;20052;-67
2022/04/04 01:55:59;;;;;;;12.45;9.90;;;;;;;;;;4937230;28;20048;-68
2022/04/04 01:58:27;;;;;;;12.90;11.43;;;;;;;;;;4936145;29;20055;-68
2022/04/04 02:01:00;;;;;;;12.65;11.50;;;;;;;;;;4937023;29;20530;-68
2022/04/04 02:03:35;;;;;;;12.82;10.48;;;;;;;;;;4936846;29;20082;-68
2022/04/04 02:06:05;;;;;;;12.25;11.05;;;;;;;;;;4936687;29;20131;-68
2022/04/04 02:08:33;;;;;;;11.18;10.07;;;;;;;;;;4936668;29;20051;-68
2022/04/04 02:11:07;;;;;;;10.82;9.82;;;;;;;;;;4936472;29;20055;-69
2022/04/04 02:13:35;;;;;;;11.00;10.00;;;;;;;;;;4954295;28;20051;-68
2022/04/04 02:16:05;;;;;;;11.18;10.07;;;;;;;;;;4936619;29;20103;-68
2022/04/04 02:18:37;;;;;;;11.35;10.18;;;;;;;;;;4936592;28;20055;-69
2022/04/04 02:21:07;;;;;;;12.45;11.23;;;;;;;;;;4936739;28;20134;-69
2022/04/04 02:23:35;;;;;;;12.02;10.95;;;;;;;;;;4936381;29;20487;-69
2022/04/04 02:26:03;;;;;;;12.25;10.90;;;;;;;;;;4936111;29;20142;-69
2022/04/04 02:28:31;;;;;;;12.27;11.07;;;;;;;;;;4936322;28;20110;-68
2022/04/04 02:30:59;;;;;;;10.93;9.80;;;;;;;;;;4935630;29;20122;-68
2022/04/04 02:33:27;;;;;;;13.15;11.77;;;;;;;;;;4936617;28;20103;-69
2022/04/04 02:35:56;;;;;;;12.30;10.32;;;;;;;;;;4936533;29;20115;-68
2022/04/04 02:38:26;;;;;;;11.88;10.77;;;;;;;;;;4936310;29;20056;-68
2022/04/04 02:40:56;;;;;;;11.30;10.20;;;;;;;;;;4936151;29;20507;-68
2022/04/04 02:43:25;;;;;;;10.95;9.95;;;;;;;;;;4936215;29;20558;-68
2022/04/04 02:45:57;;;;;;;11.00;10.00;;;;;;;;;;4935077;29;20055;-68
2022/04/04 02:48:26;;;;;;;13.60;10.95;;;;;;;;;;4935714;28;20043;-69
2022/04/04 02:50:56;;;;;;;12.43;10.52;;;;;;;;;;4936461;28;20052;-68
2022/04/04 02:53:24;;;;;;;11.70;10.57;;;;;;;;;;4935967;28;20052;-69
2022/04/04 02:58:38;;;;;;;10.27;9.27;;;;;;;;;;4945317;29;20113;-68
2022/04/04 03:01:06;;;;;;;11.23;10.23;;;;;;;;;;4954613;28;20479;-68
2022/04/04 03:03:34;;;;;;;12.02;10.93;;;;;;;;;;4938684;29;20086;-68
2022/04/04 03:06:04;;;;;;;13.15;11.95;;;;;;;;;;4953967;29;20063;-68
2022/04/04 03:08:33;;;;;;;13.85;12.30;;;;;;;;;;4954989;28;20086;-69
2022/04/04 03:11:01;;;;;;;11.48;10.38;;;;;;;;;;4954657;28;20059;-69
2022/04/04 03:13:29;;;;;;;11.43;10.30;;;;;;;;;;4954775;28;20463;-69
2022/04/04 03:15:58;;;;;;;11.50;10.32;;;;;;;;;;4955124;28;20130;-68
2022/04/04 03:18:27;;;;;;;11.77;10.77;;;;;;;;;;4954462;29;20056;-69
2022/04/04 03:20:56;;;;;;;13.98;11.05;;;;;;;;;;4954751;28;20509;-68
2022/04/04 03:23:27;;;;;;;13.00;11.70;;;;;;;;;;4950947;28;20071;-68
2022/04/04 03:25:55;;;;;;;15.75;12.23;;;;;;;;;;4935790;28;20067;-68
2022/04/04 03:28:25;;;;;;;12.07;10.90;;;;;;;;;;4936044;29;20047;-68
2022/04/04 03:30:53;;;;;;;11.27;10.18;;;;;;;;;;4955183;29;20075;-68
2022/04/04 03:33:22;;;;;;;12.25;11.05;;;;;;;;;;4955068;28;20059;-68
2022/04/04 03:35:50;;;;;;;11.90;10.68;;;;;;;;;;4954465;28;20055;-68
2022/04/04 03:38:19;;;;;;;12.05;10.90;;;;;;;;;;4954296;28;20043;-67
2022/04/04 03:40:46;;;;;;;12.18;10.98;;;;;;;;;;4953547;29;20051;-67
2022/04/04 03:43:17;;;;;;;12.55;11.30;;;;;;;;;;4954225;28;20102;-68
2022/04/04 03:45:48;;;;;;;12.45;11.25;;;;;;;;;;4954851;28;20559;-67
2022/04/04 03:48:17;;;;;;;13.85;12.43;;;;;;;;;;4954798;28;20051;-68
2022/04/04 03:50:47;;;;;;;14.43;11.90;;;;;;;;;;4954479;28;20049;-68
2022/04/04 03:53:16;;;;;;;11.80;10.60;;;;;;;;;;4953874;28;20047;-68
2022/04/04 03:55:46;;;;;;;11.77;10.60;;;;;;;;;;4953799;28;20059;-67
2022/04/04 03:58:15;;;;;;;12.48;10.60;;;;;;;;;;4954455;28;20097;-68
2022/04/04 04:00:44;;;;;;;12.60;11.38;;;;;;;;;;4956187;28;20057;-67
2022/04/04 04:03:13;;;;;;;13.98;12.68;;;;;;;;;;4958305;28;20396;-68
2022/04/04 04:05:41;;;;;;;13.13;11.82;;;;;;;;;;4957470;28;20051;-68
2022/04/04 04:08:13;;;;;;;12.60;11.40;;;;;;;;;;4958014;28;20040;-67
2022/04/04 04:10:43;;;;;;;12.30;11.07;;;;;;;;;;4958024;28;20055;-67
2022/04/04 04:13:12;;;;;;;12.75;11.45;;;;;;;;;;4958063;28;20066;-67
2022/04/04 04:15:40;;;;;;;11.63;10.45;;;;;;;;;;4958103;28;20054;-67
2022/04/04 04:18:10;;;;;;;13.05;11.70;;;;;;;;;;4958164;28;20058;-67
2022/04/04 04:20:40;;;;;;;12.57;11.35;;;;;;;;;;4956287;29;20055;-68
2022/04/04 04:23:09;;;;;;;13.07;11.77;;;;;;;;;;4957542;28;20083;-67
2022/04/04 04:25:39;;;;;;;11.80;10.57;;;;;;;;;;4957020;28;20048;-67
2022/04/04 04:28:09;;;;;;;14.13;12.10;;;;;;;;;;4957628;28;20130;-68
2022/04/04 04:30:38;;;;;;;15.13;13.40;;;;;;;;;;4957042;28;20153;-68
2022/04/04 04:33:07;;;;;;;12.45;11.25;;;;;;;;;;4957381;28;20054;-67
2022/04/04 04:35:37;;;;;;;12.50;11.20;;;;;;;;;;4957126;28;20062;-68
2022/04/04 04:38:04;;;;;;;12.27;11.07;;;;;;;;;;4956614;28;20059;-67
2022/04/04 04:40:34;;;;;;;11.00;10.00;;;;;;;;;;4956084;29;20078;-68
2022/04/04 04:43:03;;;;;;;16.42;12.82;;;;;;;;;;4948847;28;20055;-68
2022/04/04 04:45:32;;;;;;;14.52;12.02;;;;;;;;;;4938831;29;20118;-68
2022/04/04 04:48:00;;;;;;;12.85;11.55;;;;;;;;;;4941292;29;20048;-68
2022/04/04 04:50:28;;;;;;;14.05;11.20;;;;;;;;;;4957293;28;20135;-67
2022/04/04 04:52:57;;;;;;;11.80;10.70;;;;;;;;;;4957247;28;20055;-67
2022/04/04 04:55:26;;;;;;;12.50;11.20;;;;;;;;;;4956588;28;20078;-69
2022/04/04 04:57:54;;;;;;;10.88;9.88;;;;;;;;;;4948317;28;20052;-68
2022/04/04 05:00:27;;;;;;;12.00;9.73;;;;;;;;;;4950538;29;20074;-70
2022/04/04 05:05:43;;;;;;;11.77;10.68;;;;;;;;;;4938004;29;20554;-69
2022/04/04 05:08:12;;;;;;;11.45;10.35;;;;;;;;;;4937928;29;20048;-69
2022/04/04 05:10:40;;;;;;;12.27;11.00;;;;;;;;;;4937202;28;20039;-69
2022/04/04 05:13:09;;;;;;;12.10;10.90;;;;;;;;;;4937530;28;20443;-69
2022/04/04 05:15:38;;;;;;;16.63;10.65;;;;;;;;;;4939859;29;20054;-69
2022/04/04 05:18:06;;;;;;;12.15;10.85;;;;;;;;;;4952284;29;20066;-69
2022/04/04 05:20:35;;;;;;;14.30;11.75;;;;;;;;;;4952973;29;20129;-69
2022/04/04 05:23:04;;;;;;;11.82;10.68;;;;;;;;;;4946083;29;20055;-69
2022/04/04 05:25:33;;;;;;;13.25;11.95;;;;;;;;;;4950778;29;20081;-69
2022/04/04 05:28:01;;;;;;;12.32;11.15;;;;;;;;;;4948270;28;20110;-68
2022/04/04 05:30:29;;;;;;;13.40;12.15;;;;;;;;;;4943334;28;20051;-69
2022/04/04 05:32:57;;;;;;;12.25;10.88;;;;;;;;;;4942025;28;20051;-70
2022/04/04 05:35:25;;;;;;;13.85;11.93;;;;;;;;;;4948340;29;20064;-69
2022/04/04 05:37:55;;;;;;;13.85;12.45;;;;;;;;;;4950214;29;20155;-68
2022/04/04 05:40:27;;;;;;;12.77;11.48;;;;;;;;;;4944996;29;20054;-68
2022/04/04 05:42:55;;;;;;;13.15;11.85;;;;;;;;;;4942116;29;20507;-66
2022/04/04 05:45:24;;;;;;;12.63;11.40;;;;;;;;;;4947630;28;20051;-68
2022/04/04 05:47:52;;;;;;;12.68;11.48;;;;;;;;;;4950748;28;20054;-68
2022/04/04 05:50:21;;;;;;;15.32;12.93;;;;;;;;;;4946620;28;20043;-67
2022/04/04 05:52:49;;;;;;;11.93;10.75;;;;;;;;;;4941637;28;20043;-67
2022/04/04 05:55:19;;;;;;;11.00;9.88;;;;;;;;;;4949561;28;20591;-68
2022/04/04 05:57:48;;;;;;;14.35;11.52;;;;;;;;;;4945945;28;20047;-68
2022/04/04 06:00:16;;;;;;;12.35;11.13;;;;;;;;;;4948269;28;20074;-68
2022/04/04 06:02:47;;;;;;;14.15;11.30;;;;;;;;;;4949218;29;20047;-69
2022/04/04 06:05:16;;;;;;;13.35;12.05;;;;;;;;;;4955534;28;20059;-68
2022/04/04 06:07:47;;;;;;;16.27;12.70;;;;;;;;;;4955428;28;20126;-67
2022/04/04 06:10:16;;;;;;;14.30;12.35;;;;;;;;;;4951270;28;20105;-64
2022/04/04 06:12:46;;;;;;;15.25;12.00;;;;;;;;;;4949960;28;20062;-66
2022/04/04 06:15:15;;;;;;;12.32;11.10;;;;;;;;;;4955091;28;20586;-66
2022/04/04 06:17:44;;;;;;;13.18;11.88;;;;;;;;;;4955581;28;20141;-66
2022/04/04 06:20:14;;;;;;;16.52;11.25;;;;;;;;;;4955473;28;20114;-69
2022/04/04 06:22:43;;;;;;;12.38;11.18;;;;;;;;;;4954853;28;20419;-69
2022/04/04 06:25:16;;;;;;;17.17;13.40;;;;;;;;;;4949430;28;20126;-67
2022/04/04 06:27:46;;;;;;;12.82;11.52;;;;;;;;;;4934952;29;20052;-68
2022/04/04 06:30:15;;;;;;;17.33;11.40;;;;;;;;;;4947773;29;20557;-68
2022/04/04 06:32:44;;;;;;;13.40;12.10;;;;;;;;;;4953360;28;20061;-67
2022/04/04 06:35:14;;;;;;;13.77;12.45;;;;;;;;;;4953985;28;20106;-67
2022/04/04 06:37:43;;;;;;;13.68;12.20;;;;;;;;;;4941571;28;20126;-67
2022/04/04 06:40:13;;;;;;;14.23;12.57;;;;;;;;;;4946209;28;20047;-67
2022/04/04 06:42:44;;;;;;;17.38;12.07;;;;;;;;;;4936028;29;20084;-68
2022/04/04 06:45:13;;;;;;;17.25;12.60;;;;;;;;;;4936434;29;20055;-68
2022/04/04 06:47:42;;;;;;;12.57;11.38;;;;;;;;;;4936605;29;20056;-67
2022/04/04 06:50:13;;;;;;;12.90;11.60;;;;;;;;;;4955264;29;20121;-67
2022/04/04 06:52:42;;;;;;;16.27;12.10;;;;;;;;;;4954400;28;20047;-68
2022/04/04 06:55:31;;;;;;;14.65;12.18;;;;;;;;;;4936017;29;20051;-68
2022/04/04 06:58:00;;;;;;;12.98;11.52;;;;;;;;;;4954292;28;20522;-68
2022/04/04 07:00:29;;;;;;;14.35;12.05;;;;;;;;;;4955371;28;20074;-68
2022/04/04 07:02:58;;;;;;;12.80;11.25;;;;;;;;;;4947588;28;20171;-68
2022/04/04 07:05:27;;;;;;;15.85;10.65;;;;;;;;;;4936273;28;20055;-68
2022/04/04 07:07:56;;;;;;;12.45;9.00;;;;;;;;;;4947188;28;20054;-67
2022/04/04 07:10:27;;;;;;;16.17;10.85;;;;;;;;;;4955062;28;20097;-68
2022/04/04 07:12:55;;;;;;;13.05;9.40;;;;;;;;;;4954670;28;20178;-68
2022/04/04 07:15:24;;;;;;;10.63;8.60;;;;;;;;;;4954847;28;20182;-68
2022/04/04 07:17:52;;;;;;;10.30;8.85;;;;;;;;;;4953535;29;20062;-68
2022/04/04 07:20:22;;;;;;;11.95;9.57;;;;;;;;;;4954694;28;20491;-68
2022/04/04 07:22:51;;;;;;;10.82;8.82;;;;;;;;;;4954556;28;20567;-67
2022/04/04 07:25:22;;;;;;;8.73;7.90;;;;;;;;;;4954615;28;20055;-68
2022/04/04 07:27:50;;;;;;;10.68;9.43;;;;;;;;;;4955272;28;20130;-68
2022/04/04 07:30:20;;;;;;;11.82;8.90;;;;;;;;;;4954598;28;20047;-67
2022/04/04 07:32:50;;;;;;;14.13;8.05;;;;;;;;;;4954833;28;20047;-68
2022/04/04 07:35:19;;;;;;;12.38;9.35;;;;;;;;;;4957985;28;20051;-68
2022/04/04 07:37:49;;;;;;;11.52;9.13;;;;;;;;;;4958129;28;20080;-68
2022/04/04 07:40:19;;;;;;;10.25;8.32;;;;;;;;;;4958820;28;20055;-68
2022/04/04 07:42:48;;;;;;;12.82;9.60;;;;;;;;;;4958601;28;20059;-68
2022/04/04 07:45:17;;;;;;;10.02;9.02;;;;;;;;;;4958624;28;20126;-68
2022/04/04 07:47:46;;;;;;;16.05;11.30;;;;;;;;;;4950827;28;20503;-67
2022/04/04 07:50:15;;;;;;;16.80;9.48;;;;;;;;;;4939263;29;20068;-67
2022/04/04 07:52:44;;;;;;;10.50;8.70;;;;;;;;;;4939579;28;20530;-67
2022/04/04 07:55:12;;;;;;;12.00;9.15;;;;;;;;;;4939625;29;20079;-67
2022/04/04 07:57:41;;;;;;;11.82;9.88;;;;;;;;;;4940206;29;20134;-66
2022/04/04 08:00:17;;;;;;;12.75;9.13;;;;;;;;;;4939324;29;20056;-66
2022/04/04 08:02:45;;;;;;;11.05;7.38;;;;;;;;;;4939507;28;20122;-66
2022/04/04 08:05:16;;;;;;;15.27;9.70;;;;;;;;;;4939353;29;20051;-66
2022/04/04 08:07:48;;;;;;;11.43;8.25;;;;;;;;;;4938949;29;20515;-66
2022/04/04 08:10:17;;;;;;;9.82;7.35;;;;;;;;;;4939218;29;20132;-68
2022/04/04 08:12:51;;;;;;;9.77;7.47;;;;;;;;;;4938821;28;20118;-68
2022/04/04 08:15:20;;;;;;;12.88;7.43;;;;;;;;;;4938145;29;20131;-68
2022/04/04 08:17:55;;;;;;;11.55;6.53;;;;;;;;;;4939574;28;20139;-68
2022/04/04 08:20:23;;;;;;;12.23;7.25;;;;;;;;;;4938473;29;20083;-67
2022/04/04 08:22:53;;;;;;;10.93;6.88;;;;;;;;;;4938317;29;20051;-68
2022/04/04 08:25:24;;;;;;;15.60;7.45;;;;;;;;;;4938533;28;20059;-67
2022/04/04 08:27:53;;;;;;;13.57;7.90;;;;;;;;;;4938462;28;20222;-68
2022/04/04 08:30:23;;;;;;;10.63;6.85;;;;;;;;;;4938884;29;20106;-68
2022/04/04 08:32:53;;;;;;;13.90;8.52;;;;;;;;;;4938568;28;20047;-68
2022/04/04 08:35:22;;;;;;;16.20;9.00;;;;;;;;;;4938626;28;20164;-67
2022/04/04 08:37:51;;;;;;;14.50;9.10;;;;;;;;;;4938458;28;20083;-68
2022/04/04 08:40:19;;;;;;;11.02;7.15;;;;;;;;;;4938650;29;20451;-68
2022/04/04 08:42:47;;;;;;;9.02;7.20;;;;;;;;;;4938315;29;20130;-68
2022/04/04 08:45:16;;;;;;;19.25;8.55;;;;;;;;;;4938008;29;20106;-68
2022/04/04 08:47:43;;;;;;;12.40;7.20;;;;;;;;;;4954061;28;20063;-68
2022/04/04 08:50:13;;;;;;;12.10;6.97;;;;;;;;;;4957341;28;20055;-67
2022/04/04 08:52:45;;;;;;;9.23;6.78;;;;;;;;;;4957343;28;20043;-68
2022/04/04 08:55:15;;;;;;;6.82;5.97;;;;;;;;;;4957157;28;20051;-68
2022/04/04 08:57:46;;;;;;;8.25;7.38;;;;;;;;;;4957354;28;20410;-68
2022/04/04 09:00:17;;;;;;;9.20;6.53;;;;;;;;;;4957364;28;20552;-68
2022/04/04 09:03:04;;;;;;;8.45;7.25;;;;;;;;;;4957503;28;20471;-68
2022/04/04 09:05:49;;;;;;;7.53;6.50;;;;;;;;;;4943702;28;20504;-68
2022/04/04 09:08:23;;;;;;;7.72;5.38;;;;;;;;;;4952221;28;20079;-68
2022/04/04 09:10:57;;;;;;;6.75;6.10;;;;;;;;;;4956692;28;20043;-68
2022/04/04 09:13:30;;;;;;;8.65;6.13;;;;;;;;;;4956899;28;20047;-68
2022/04/04 09:15:58;;;;;;;7.00;6.28;;;;;;;;;;4957065;28;20051;-68
2022/04/04 09:18:37;;;;;;;7.68;6.40;;;;;;;;;;4957453;28;20495;-68
2022/04/04 09:21:31;;;;;;;8.23;6.65;;;;;;;;;;4956954;28;20047;-68
2022/04/04 09:24:03;;;;;;;26.33;9.40;;;;;;;;;;4956098;28;20102;-68
2022/04/04 09:26:36;;;;;;;8.18;5.95;;;;;;;;;;4957187;28;20069;-68
2022/04/04 09:29:07;;;;;;;10.82;6.88;;;;;;;;;;4953452;28;20059;-68
2022/04/04 09:32:05;;;;;;;10.65;7.72;;;;;;;;;;4941699;28;20051;-68
2022/04/04 09:35:02;;;;;;;9.30;6.00;;;;;;;;;;4937208;29;20408;-69
2022/04/04 09:37:32;;;;;;;10.82;7.20;;;;;;;;;;4937480;28;20051;-69
2022/04/04 09:40:01;;;;;;;11.73;6.72;;;;;;;;;;4938063;28;20134;-68
2022/04/04 09:42:53;;;;;;;7.00;5.82;;;;;;;;;;4937277;28;20411;-68
2022/04/04 09:45:24;;;;;;;10.15;6.45;;;;;;;;;;4937549;29;20052;-68
2022/04/04 09:48:09;;;;;;;7.75;5.40;;;;;;;;;;4937622;29;20082;-67
2022/04/04 09:50:50;;;;;;;5.60;5.00;;;;;;;;;;4936164;29;20058;-68
2022/04/04 09:53:19;;;;;;;5.40;4.85;;;;;;;;;;4937005;28;20102;-68
2022/04/04 09:55:55;;;;;;;6.30;4.40;;;;;;;;;;4937094;28;20055;-68
2022/04/04 09:58:25;;;;;;;15.63;6.38;;;;;;;;;;4936303;29;20075;-69
2022/04/04 10:00:56;;;;;;;4.10;3.80;;;;;;;;;;4942014;29;20113;-68
2022/04/04 10:03:24;;;;;;;5.47;4.50;;;;;;;;;;4956186;28;20047;-68
2022/04/04 10:05:57;;;;;;;5.38;4.40;;;;;;;;;;4955495;28;20051;-68
2022/04/04 10:08:26;;;;;;;4.85;4.10;;;;;;;;;;4954470;29;20062;-66
2022/04/04 10:10:55;;;;;;;5.53;4.00;;;;;;;;;;4955662;28;20051;-66
2022/04/04 10:13:24;;;;;;;6.18;4.13;;;;;;;;;;4954992;28;20051;-66
2022/04/04 10:15:54;;;;;;;4.20;3.50;;;;;;;;;;4954600;29;20055;-66
2022/04/04 10:18:24;;;;;;;7.38;3.00;;;;;;;;;;4955415;28;20129;-69
2022/04/04 10:20:59;;;;;;;7.83;3.43;;;;;;;;;;4955990;28;20047;-69
2022/04/04 10:23:30;;;;;;;3.97;3.40;;;;;;;;;;4955226;28;20051;-69
2022/04/04 10:26:00;;;;;;;4.78;3.55;;;;;;;;;;4956080;28;20051;-68
2022/04/04 10:28:30;;;;;;;5.43;4.40;;;;;;;;;;4936416;28;20085;-68
2022/04/04 10:30:59;;;;;;;4.75;3.90;;;;;;;;;;4936554;29;20086;-69
2022/04/04 10:33:34;;;;;;;4.32;3.92;;;;;;;;;;4942916;29;20098;-69
2022/04/04 10:36:06;;;;;;;5.82;3.40;;;;;;;;;;4955490;28;20051;-68
2022/04/04 10:38:45;;;;;;;5.95;3.80;;;;;;;;;;4955362;28;20431;-66
2022/04/04 10:41:26;;;;;;;3.75;3.45;;;;;;;;;;4955428;29;20126;-69
2022/04/04 10:43:56;;;;;;;5.13;4.45;;;;;;;;;;4955451;28;20126;-66
2022/04/04 10:46:28;;;;;;;7.80;4.47;;;;;;;;;;4956397;28;20051;-66
2022/04/04 10:49:03;;;;;;;7.95;3.63;;;;;;;;;;4955457;28;20047;-66
2022/04/04 10:51:31;;;;;;;5.22;4.05;;;;;;;;;;4955413;28;20051;-66
2022/04/04 10:54:10;;;;;;;5.57;4.95;;;;;;;;;;4936247;29;20507;-66
2022/04/04 10:56:40;;;;;;;5.80;4.35;;;;;;;;;;4936506;29;20051;-66
2022/04/04 10:59:15;;;;;;;5.60;4.68;;;;;;;;;;4936433;28;20083;-66
2022/04/04 11:02:05;;;;;;;8.40;5.93;;;;;;;;;;4936188;28;20047;-66
2022/04/04 11:07:37;;;;;;;4.68;4.13;;;;;;;;;;4935566;29;20159;-66
2022/04/04 11:07:41;;;;;;;6.00;4.75;;;;;;;;;;4936663;29;20101;-66
2022/04/04 11:10:12;;;;;;;6.93;5.20;;;;;;;;;;4938970;29;20062;-65
2022/04/04 11:13:00;;;;;;;7.03;4.97;;;;;;;;;;4940040;29;20156;-66
2022/04/04 11:15:42;;;;;;;5.97;5.40;;;;;;;;;;4940669;28;20574;-66
2022/04/04 11:18:12;;;;;;;5.38;4.88;;;;;;;;;;4940218;28;20483;-68
2022/04/04 11:21:02;;;;;;;12.25;7.50;;;;;;;;;;4939811;29;20444;-68
2022/04/04 11:23:44;;;;;;;5.13;4.63;;;;;;;;;;4939840;28;20043;-68
2022/04/04 11:26:18;;;;;;;6.90;5.90;;;;;;;;;;4940259;28;20178;-68
2022/04/04 11:28:48;;;;;;;5.47;4.97;;;;;;;;;;4939969;29;20052;-68
2022/04/04 11:31:19;;;;;;;6.03;5.00;;;;;;;;;;4950897;28;20082;-68
2022/04/04 11:33:54;;;;;;;8.85;5.95;;;;;;;;;;4958879;28;20047;-65
2022/04/04 11:36:30;;;;;;;6.82;5.35;;;;;;;;;;4958830;28;20514;-68
2022/04/04 11:39:03;;;;;;;7.80;6.07;;;;;;;;;;4958715;28;20145;-68
2022/04/04 11:41:36;;;;;;;7.43;6.72;;;;;;;;;;4939537;29;20529;-68
2022/04/04 11:44:06;;;;;;;8.02;7.22;;;;;;;;;;4939257;29;20055;-68
2022/04/04 11:46:34;;;;;;;10.80;7.97;;;;;;;;;;4947929;29;20051;-68
2022/04/04 11:49:05;;;;;;;7.20;6.55;;;;;;;;;;4958102;28;20134;-66
2022/04/04 11:51:34;;;;;;;7.40;6.68;;;;;;;;;;4957890;28;20043;-66
2022/04/04 11:54:03;;;;;;;7.05;6.45;;;;;;;;;;4957804;28;20098;-66
2022/04/04 11:56:31;;;;;;;7.13;6.22;;;;;;;;;;4957172;29;20126;-66
2022/04/04 11:59:04;;;;;;;7.30;6.70;;;;;;;;;;4957584;28;20534;-65
2022/04/04 12:01:33;;;;;;;8.70;6.70;;;;;;;;;;4958412;28;20047;-66
2022/04/04 12:04:03;;;;;;;8.70;7.68;;;;;;;;;;4942641;28;20055;-66
2022/04/04 12:06:34;;;;;;;7.78;7.05;;;;;;;;;;4939431;28;20055;-67
2022/04/04 12:09:07;;;;;;;8.55;7.75;;;;;;;;;;4939502;28;20101;-67
2022/04/04 12:11:37;;;;;;;11.10;7.90;;;;;;;;;;4940702;28;20062;-66
2022/04/04 12:14:05;;;;;;;10.05;7.18;;;;;;;;;;4938689;29;20404;-67
2022/04/04 12:16:34;;;;;;;9.73;7.93;;;;;;;;;;4938586;29;20571;-67
2022/04/04 12:19:09;;;;;;;12.27;9.10;;;;;;;;;;4943941;29;20062;-66
2022/04/04 12:21:37;;;;;;;10.88;8.38;;;;;;;;;;4937067;29;20386;-66
2022/04/04 12:27:08;;;;;;;11.05;7.70;;;;;;;;;;4938982;29;20090;-66
2022/04/04 12:29:43;;;;;;;8.60;7.72;;;;;;;;;;4937877;29;20048;-66
2022/04/04 12:32:18;;;;;;;8.55;7.40;;;;;;;;;;4937937;28;20127;-66
2022/04/04 12:34:58;;;;;;;9.40;7.63;;;;;;;;;;4938680;29;20047;-67
2022/04/04 12:37:33;;;;;;;8.02;7.10;;;;;;;;;;4937571;29;20067;-66
2022/04/04 12:40:25;;;;;;;12.15;7.68;;;;;;;;;;4938618;29;20083;-67
2022/04/04 12:43:05;;;;;;;9.45;7.22;;;;;;;;;;4939098;28;20055;-66
2022/04/04 12:45:34;;;;;;;8.27;7.53;;;;;;;;;;4938951;29;20464;-66
2022/04/04 12:48:07;;;;;;;10.55;7.05;;;;;;;;;;4939022;29;20048;-66
2022/04/04 12:50:44;;;;;;;9.85;7.57;;;;;;;;;;4948153;29;20436;-66
2022/04/04 12:53:12;;;;;;;8.98;8.18;;;;;;;;;;4946328;29;20111;-66
2022/04/04 12:55:45;;;;;;;7.82;7.07;;;;;;;;;;4938119;29;20076;-66
2022/04/04 12:58:23;;;;;;;11.15;7.40;;;;;;;;;;4937748;29;20075;-65
2022/04/04 13:00:53;;;;;;;8.48;7.65;;;;;;;;;;4938143;29;20056;-66
2022/04/04 13:03:24;;;;;;;10.20;7.55;;;;;;;;;;4938260;29;20056;-67
2022/04/04 13:05:55;;;;;;;7.95;7.18;;;;;;;;;;4937978;29;20048;-66
2022/04/04 13:08:28;;;;;;;11.77;7.75;;;;;;;;;;4938204;29;20054;-66
2022/04/04 13:11:01;;;;;;;;;;;;;;;;;;4937836;29;20107;-66
2022/04/04 13:13:28;;;;;;;7.38;6.68;;;;;;;;;;4937805;29;19922;-66
2022/04/04 13:15:57;;;;;;;8.55;7.10;;;;;;;;;;4937334;29;20079;-66
2022/04/04 13:18:45;;;;;;;7.13;6.43;;;;;;;;;;4937800;29;20385;-66
2022/04/04 13:21:14;;;;;;;16.20;6.88;;;;;;;;;;4937552;28;20095;-66
2022/04/04 13:23:43;;;;;;;9.82;7.05;;;;;;;;;;4937650;29;20146;-66
2022/04/04 13:26:11;;;;;;;7.50;6.82;;;;;;;;;;4937293;29;20106;-67
2022/04/04 13:28:41;;;;;;;7.90;7.10;;;;;;;;;;4937233;29;20134;-66
2022/04/04 13:31:09;;;;;;;7.78;7.07;;;;;;;;;;4937174;29;20039;-66
2022/04/04 13:33:38;;;;;;;8.75;6.30;;;;;;;;;;4936902;29;20056;-66
2022/04/04 13:36:08;;;;;;;8.88;6.70;;;;;;;;;;4936999;28;20523;-66
2022/04/04 13:38:38;;;;;;;6.82;5.85;;;;;;;;;;4937225;29;20055;-66
2022/04/04 13:41:07;;;;;;;8.50;6.32;;;;;;;;;;4937464;28;20062;-66
2022/04/04 13:43:36;;;;;;;6.43;5.40;;;;;;;;;;4937325;29;20051;-66
2022/04/04 13:46:05;;;;;;;7.05;6.35;;;;;;;;;;4937278;29;20071;-66
2022/04/04 13:48:35;;;;;;;17.38;7.00;;;;;;;;;;4936976;29;20475;-66
2022/04/04 13:51:06;;;;;;;8.65;7.60;;;;;;;;;;4937435;29;20055;-66
2022/04/04 13:53:36;;;;;;;10.00;7.10;;;;;;;;;;4936768;29;20139;-66
2022/04/04 13:56:05;;;;;;;12.32;8.45;;;;;;;;;;4943110;28;20436;-67
2022/04/04 13:58:36;;;;;;;10.18;8.20;;;;;;;;;;4936043;29;20555;-66
2022/04/04 14:01:05;;;;;;;8.13;7.30;;;;;;;;;;4936523;29;20066;-67
2022/04/04 14:03:33;;;;;;;9.48;7.05;;;;;;;;;;4936331;29;20363;-67
2022/04/04 14:06:02;;;;;;;9.38;6.97;;;;;;;;;;4935970;29;20054;-66
2022/04/04 14:08:33;;;;;;;7.30;6.68;;;;;;;;;;4936185;29;20077;-67
2022/04/04 14:11:12;;;;;;;7.40;6.70;;;;;;;;;;4936665;28;20056;-67
2022/04/04 14:13:44;;;;;;;10.40;7.15;;;;;;;;;;4942582;29;20051;-67
2022/04/04 14:16:12;;;;;;;7.43;6.68;;;;;;;;;;4954769;28;20066;-67
2022/04/04 14:18:41;;;;;;;7.88;6.55;;;;;;;;;;4955113;28;20443;-67
2022/04/04 14:21:10;;;;;;;7.65;6.78;;;;;;;;;;4954383;28;20613;-67
2022/04/04 14:23:40;;;;;;;8.80;6.95;;;;;;;;;;4954467;28;20059;-67
2022/04/04 14:26:11;;;;;;;7.72;6.85;;;;;;;;;;4948597;28;20503;-67
2022/04/04 14:28:40;;;;;;;7.18;6.57;;;;;;;;;;4936716;28;20408;-67
2022/04/04 14:31:11;;;;;;;6.97;6.28;;;;;;;;;;4947120;29;20089;-67
2022/04/04 14:33:40;;;;;;;6.75;6.05;;;;;;;;;;4954612;28;20522;-67
2022/04/04 14:36:09;;;;;;;6.10;5.50;;;;;;;;;;4954505;28;20055;-67
2022/04/04 14:38:39;;;;;;;6.55;5.95;;;;;;;;;;4949450;28;20467;-67
2022/04/04 14:41:11;;;;;;;6.15;5.65;;;;;;;;;;4936545;29;20052;-67
2022/04/04 14:43:40;;;;;;;6.38;5.78;;;;;;;;;;4946220;29;20055;-67
2022/04/04 14:46:08;;;;;;;6.53;5.93;;;;;;;;;;4953675;29;20271;-66
2022/04/04 14:48:44;;;;;;;6.90;6.22;;;;;;;;;;4954792;28;20406;-67
2022/04/04 14:51:16;;;;;;;7.68;5.93;;;;;;;;;;4954919;28;20058;-66
2022/04/04 14:53:45;;;;;;;6.95;6.25;;;;;;;;;;4954366;28;20086;-67
2022/04/04 14:56:14;;;;;;;9.05;5.78;;;;;;;;;;4945497;28;20111;-67
2022/04/04 14:58:42;;;;;;;7.18;6.30;;;;;;;;;;4935961;29;20052;-66
2022/04/04 15:01:13;;;;;;;7.38;5.97;;;;;;;;;;4935285;29;20062;-68
2022/04/04 15:03:42;;;;;;;6.55;5.93;;;;;;;;;;4935320;29;20052;-68